Time;durP1;ratioP1;P1;durP2;ratioP2;P2;SDS_P1;SDS_P2;PMS_P1;PMS_P2;Temp;Humidity;BMP_temperature;BMP_pressure;BME280_temperature;BME280_humidity;BME280_pressure;Samples;Min_cycle;Max_cycle;Signal;HPM_P1;HPM_P2
2022/09/28 00:01:59;;;;;;;4.87;2.45;;;;;;;;;;4350091;32;19938;-66
2022/09/28 00:04:24;;;;;;;;;;;;;;;;;;4364221;32;20330;-64
2022/09/28 00:06:49;;;;;;;9.52;2.90;;;;;;;;;;4362847;32;20347;-66
2022/09/28 00:09:14;;;;;;;;;;;;;;;;;;4362902;32;20127;-65
2022/09/28 00:11:39;;;;;;;9.05;3.10;;;;;;;;;;4363100;32;19957;-64
2022/09/28 00:14:06;;;;;;;;;;;;;;;;;;4362482;32;20065;-64
2022/09/28 00:16:35;;;;;;;6.82;3.10;;;;;;;;;;4363347;32;20296;-65
2022/09/28 00:19:01;;;;;;;9.57;3.20;;;;;;;;;;4362163;32;20076;-64
2022/09/28 00:21:26;;;;;;;;;;;;;;;;;;4349549;32;20473;-64
2022/09/28 00:26:35;;;;;;;6.97;3.08;;;;;;;;;;4363003;32;20049;-64
2022/09/28 00:29:01;;;;;;;;;;;;;;;;;;4349448;33;20431;-65
2022/09/28 00:31:27;;;;;;;8.73;3.53;;;;;;;;;;4362947;32;19935;-65
2022/09/28 00:33:56;;;;;;;9.35;3.35;;;;;;;;;;4361460;32;20134;-64
2022/09/28 00:36:22;;;;;;;7.50;3.00;;;;;;;;;;4362541;32;20089;-65
2022/09/28 00:38:47;;;;;;;;;;;;;;;;;;4392431;27;20509;-74
2022/09/28 00:41:16;;;;;;;9.88;3.75;;;;;;;;;;4380153;32;19942;-75
2022/09/28 00:43:45;;;;;;;15.90;4.80;;;;;;;;;;4392123;32;20026;-75
2022/09/28 00:46:27;;;;;;;11.15;4.25;;;;;;;;;;4391197;32;20035;-75
2022/09/28 00:48:57;;;;;;;7.78;4.05;;;;;;;;;;4391699;32;20033;-74
2022/09/28 00:51:26;;;;;;;13.60;5.18;;;;;;;;;;4388969;32;20064;-75
2022/09/28 01:36:49;;;;;;;4.57;1.60;;;;;;;;;;4344333;33;20062;-76
2022/09/28 04:02:55;;;;;;;4.45;1.98;;;;;;;;;;4231596;34;20408;-75
2022/09/28 05:41:08;;;;;;;7.90;3.35;;;;;;;;;;4257722;33;20044;-76
2022/09/28 05:46:45;;;;;;;4.30;2.50;;;;;;;;;;4257603;33;20064;-75
2022/09/28 05:56:05;;;;;;;;;;;;;;;;;;;;;
2022/09/28 06:26:27;;;;;;;4.82;2.90;;;;;;;;;;4286166;33;20435;-76
2022/09/28 06:58:21;;;;;;;5.35;2.80;;;;;;;;;;4247369;33;20044;-76
2022/09/28 07:10:19;;;;;;;5.00;2.60;;;;;;;;;;4276948;33;20055;-76
2022/09/28 07:12:46;;;;;;;5.68;3.45;;;;;;;;;;4293634;33;20412;-77
2022/09/28 07:15:12;;;;;;;7.62;2.97;;;;;;;;;;4354336;32;20031;-76
2022/09/28 07:17:47;;;;;;;;;;;;;;;;;;;;;
2022/09/28 07:20:16;;;;;;;4.37;2.42;;;;;;;;;;4393272;32;19941;-78
2022/09/28 07:25:51;;;;;;;3.42;1.55;;;;;;;;;;4376945;32;20069;-77
2022/09/28 07:28:16;;;;;;;4.20;1.42;;;;;;;;;;4377878;32;20015;-77
2022/09/28 07:30:43;;;;;;;;;;;;;;;;;;4377813;32;20040;-77
2022/09/28 07:33:11;;;;;;;3.53;1.60;;;;;;;;;;4377845;32;20001;-77
2022/09/28 07:35:36;;;;;;;6.03;1.23;;;;;;;;;;4377501;32;20042;-77
2022/09/28 07:41:31;;;;;;;2.85;1.42;;;;;;;;;;4315729;33;19995;-78
2022/09/28 07:43:58;;;;;;;5.87;1.70;;;;;;;;;;4318042;33;20029;-77
2022/09/28 07:46:53;;;;;;;5.45;1.80;;;;;;;;;;4325118;33;20054;-77
2022/09/28 07:49:21;;;;;;;8.48;2.28;;;;;;;;;;4330701;33;20078;-77
2022/09/28 07:52:11;;;;;;;;;;;;;;;;;;;;;
2022/09/28 07:55:08;;;;;;;24.20;17.17;;;;;;;;;;4377288;32;20023;-77
2022/09/28 08:00:54;;;;;;;;;;;;;;;;;;;;;
2022/09/28 08:06:11;;;;;;;7.12;2.37;;;;;;;;;;4375008;32;19949;-76
2022/09/28 08:08:37;;;;;;;6.57;2.73;;;;;;;;;;4362068;33;20096;-75
2022/09/28 08:11:04;;;;;;;7.30;3.05;;;;;;;;;;4348861;33;20031;-76
2022/09/28 08:13:32;;;;;;;6.87;2.20;;;;;;;;;;4355138;32;20456;-76
2022/09/28 08:16:01;;;;;;;3.85;2.40;;;;;;;;;;4377283;32;20060;-75
2022/09/28 08:18:26;;;;;;;7.12;2.80;;;;;;;;;;4376763;32;20023;-76
2022/09/28 08:23:37;;;;;;;4.95;2.33;;;;;;;;;;4376506;32;19964;-75
2022/09/28 08:26:02;;;;;;;4.90;1.90;;;;;;;;;;4376190;32;20389;-75
2022/09/28 08:28:27;;;;;;;;;;;;;;;;;;4376515;32;20027;-75
2022/09/28 08:30:53;;;;;;;7.72;2.42;;;;;;;;;;4377256;32;19948;-75
2022/09/28 08:33:22;;;;;;;4.43;1.85;;;;;;;;;;4377461;32;20080;-75
2022/09/28 08:35:47;;;;;;;4.30;1.50;;;;;;;;;;4377082;32;20112;-75
2022/09/28 08:38:12;;;;;;;;;;;;;;;;;;4376889;32;20353;-75
2022/09/28 08:43:47;;;;;;;2.92;1.00;;;;;;;;;;4315795;33;20095;-74
2022/09/28 08:46:14;;;;;;;3.60;1.20;;;;;;;;;;4372006;32;20019;-74
2022/09/28 08:49:02;;;;;;;3.25;1.17;;;;;;;;;;4376727;32;20022;-74
2022/09/28 08:51:46;;;;;;;10.02;1.62;;;;;;;;;;4377199;32;20491;-75
2022/09/28 08:54:33;;;;;;;3.28;2.00;;;;;;;;;;4346459;33;20031;-74
2022/09/28 08:57:07;;;;;;;4.22;1.75;;;;;;;;;;4338821;33;20093;-74
2022/09/28 08:59:54;;;;;;;2.25;1.10;;;;;;;;;;4362051;32;20019;-74
2022/09/28 09:02:32;;;;;;;3.97;1.48;;;;;;;;;;4361366;33;20049;-74
2022/09/28 09:05:01;;;;;;;4.82;1.52;;;;;;;;;;4346149;33;20130;-74
2022/09/28 09:10:48;;;;;;;2.30;1.10;;;;;;;;;;4346479;33;20468;-74
2022/09/28 09:13:24;;;;;;;4.15;1.17;;;;;;;;;;4332957;33;20024;-73
2022/09/28 09:15:54;;;;;;;3.43;0.97;;;;;;;;;;4346104;33;20020;-74
2022/09/28 09:18:36;;;;;;;4.15;0.50;;;;;;;;;;4346069;33;20028;-73
2022/09/28 09:21:06;;;;;;;5.75;1.58;;;;;;;;;;4346234;33;20027;-73
2022/09/28 09:23:37;;;;;;;4.32;1.90;;;;;;;;;;4359421;32;20101;-72
2022/09/28 09:26:25;;;;;;;8.65;1.60;;;;;;;;;;4361354;32;20073;-73
2022/09/28 09:29:06;;;;;;;3.17;0.90;;;;;;;;;;4360984;32;20098;-73
2022/09/28 09:31:43;;;;;;;4.53;0.93;;;;;;;;;;4359754;32;20491;-73
2022/09/28 09:34:27;;;;;;;1.98;0.80;;;;;;;;;;4358594;32;20079;-73
2022/09/28 09:37:05;;;;;;;2.83;1.08;;;;;;;;;;4364250;32;20038;-73
2022/09/28 09:39:30;;;;;;;4.55;1.27;;;;;;;;;;4370899;32;20552;-75
2022/09/28 09:42:07;;;;;;;4.97;1.10;;;;;;;;;;4369092;32;20066;-72
2022/09/28 09:44:32;;;;;;;4.43;1.27;;;;;;;;;;4372558;32;20408;-73
2022/09/28 09:46:58;;;;;;;;;;;;;;;;;;4377017;32;20085;-72
2022/09/28 09:49:25;;;;;;;2.00;0.82;;;;;;;;;;4375247;32;19946;-73
2022/09/28 09:51:53;;;;;;;3.92;0.98;;;;;;;;;;4376515;32;20373;-73
2022/09/28 09:54:54;;;;;;;3.90;1.12;;;;;;;;;;4375794;32;20068;-73
2022/09/28 09:57:24;;;;;;;4.82;1.60;;;;;;;;;;4342948;32;20451;-73
2022/09/28 09:59:49;;;;;;;2.20;1.00;;;;;;;;;;4376058;32;20413;-72
2022/09/28 10:02:14;;;;;;;;;;;;;;;;;;4376309;32;20031;-73
2022/09/28 10:04:43;;;;;;;0.88;0.75;;;;;;;;;;4375923;32;20017;-73
2022/09/28 10:07:12;;;;;;;1.85;0.70;;;;;;;;;;4375407;32;20026;-73
2022/09/28 10:09:44;;;;;;;2.42;0.95;;;;;;;;;;4375078;32;20054;-73
2022/09/28 10:12:18;;;;;;;2.03;0.70;;;;;;;;;;4375068;32;20019;-73
2022/09/28 10:14:45;;;;;;;3.58;1.00;;;;;;;;;;4375144;32;20093;-73
2022/09/28 10:17:12;;;;;;;1.55;0.82;;;;;;;;;;4362406;32;20019;-73
2022/09/28 10:19:37;;;;;;;2.53;0.80;;;;;;;;;;4375028;32;20062;-74
2022/09/28 10:22:05;;;;;;;2.67;0.80;;;;;;;;;;4374290;32;20018;-73
2022/09/28 10:24:33;;;;;;;1.62;0.98;;;;;;;;;;4375063;32;20049;-73
2022/09/28 10:27:06;;;;;;;3.95;1.00;;;;;;;;;;4374902;32;20058;-73
2022/09/28 10:29:38;;;;;;;1.83;0.95;;;;;;;;;;4375185;32;20026;-74
2022/09/28 10:32:16;;;;;;;1.62;0.80;;;;;;;;;;4374963;32;20023;-74
2022/09/28 10:34:41;;;;;;;2.72;0.70;;;;;;;;;;4367294;32;20035;-74
2022/09/28 10:37:09;;;;;;;5.10;0.90;;;;;;;;;;4361032;32;20411;-74
2022/09/28 10:39:36;;;;;;;4.60;1.80;;;;;;;;;;4373824;32;20023;-75
2022/09/28 10:48:50;;;;;;;3.12;1.10;;;;;;;;;;4273818;33;20020;-75
2022/09/28 10:51:19;;;;;;;5.70;2.60;;;;;;;;;;4311552;33;20028;-74
2022/09/28 10:54:14;;;;;;;;;;;;;;;;;;;;;
2022/09/28 10:56:40;;;;;;;4.05;0.90;;;;;;;;;;4255037;33;20080;-74
2022/09/28 10:59:32;;;;;;;2.72;0.70;;;;;;;;;;4308296;33;20024;-74
2022/09/28 11:02:00;;;;;;;1.67;0.90;;;;;;;;;;4326113;32;20137;-73
2022/09/28 11:04:26;;;;;;;2.50;0.70;;;;;;;;;;4374938;32;20027;-73
2022/09/28 11:06:57;;;;;;;4.93;1.23;;;;;;;;;;4374186;32;20049;-74
2022/09/28 11:09:28;;;;;;;1.25;0.70;;;;;;;;;;4374684;32;20023;-74
2022/09/28 11:11:53;;;;;;;2.25;0.80;;;;;;;;;;4373165;32;20113;-75
2022/09/28 11:14:39;;;;;;;2.47;0.80;;;;;;;;;;4371605;32;20093;-74
2022/09/28 11:17:24;;;;;;;8.45;1.40;;;;;;;;;;4372133;32;20030;-73
2022/09/28 11:19:49;;;;;;;5.45;1.15;;;;;;;;;;4372918;32;20047;-74
2022/09/28 11:22:50;;;;;;;1.33;0.73;;;;;;;;;;4372862;32;20054;-73
2022/09/28 11:25:16;;;;;;;4.70;0.90;;;;;;;;;;4307604;33;20134;-74
2022/09/28 11:27:54;;;;;;;1.77;1.00;;;;;;;;;;4361856;32;20424;-74
2022/09/28 11:30:43;;;;;;;3.15;1.00;;;;;;;;;;4371709;32;20039;-75
2022/09/28 11:33:16;;;;;;;3.65;1.05;;;;;;;;;;4371242;32;20084;-75
2022/09/28 11:36:04;;;;;;;3.25;1.10;;;;;;;;;;4373549;32;20072;-75
2022/09/28 11:38:32;;;;;;;1.45;0.75;;;;;;;;;;4372566;32;20089;-75
2022/09/28 11:41:23;;;;;;;3.62;1.00;;;;;;;;;;4369832;32;20104;-75
2022/09/28 11:44:06;;;;;;;4.05;1.23;;;;;;;;;;4371277;32;20043;-75
2022/09/28 11:46:50;;;;;;;1.90;0.70;;;;;;;;;;4370870;32;20031;-75
2022/09/28 11:49:19;;;;;;;2.70;0.60;;;;;;;;;;4358614;32;20027;-74
2022/09/28 11:51:46;;;;;;;2.62;1.00;;;;;;;;;;4371178;32;20077;-75
2022/09/28 11:54:27;;;;;;;2.87;1.17;;;;;;;;;;4371432;32;20047;-76
2022/09/28 11:56:54;;;;;;;5.68;1.30;;;;;;;;;;4372137;32;20063;-77
2022/09/28 11:59:20;;;;;;;3.97;1.40;;;;;;;;;;4371948;32;20085;-76
2022/09/28 12:02:08;;;;;;;3.35;1.40;;;;;;;;;;4372129;32;20023;-76
2022/09/28 12:04:43;;;;;;;6.07;1.40;;;;;;;;;;4364791;32;20070;-76
2022/09/28 12:10:40;;;;;;;26.70;7.32;;;;;;;;;;4319663;33;20075;-79
2022/09/28 12:19:42;;;;;;;15.20;3.83;;;;;;;;;;4325588;33;20031;-78
2022/09/28 12:22:14;;;;;;;11.95;2.90;;;;;;;;;;4275347;33;20060;-79
2022/09/28 12:24:55;;;;;;;6.43;2.53;;;;;;;;;;4311889;33;20110;-79
2022/09/28 12:27:23;;;;;;;6.90;2.65;;;;;;;;;;4317030;33;20032;-79
2022/09/28 12:29:52;;;;;;;9.32;2.25;;;;;;;;;;4319628;33;20059;-80
2022/09/28 12:32:27;;;;;;;11.60;3.95;;;;;;;;;;4319571;33;20072;-80
2022/09/28 12:35:07;;;;;;;6.78;2.80;;;;;;;;;;4318624;33;20032;-82
2022/09/28 12:37:47;;;;;;;5.53;1.55;;;;;;;;;;4312821;33;20036;-82
2022/09/28 12:40:38;;;;;;;11.93;4.45;;;;;;;;;;4338861;33;20061;-81
2022/09/28 12:43:03;;;;;;;7.30;3.75;;;;;;;;;;4361775;32;20140;-80
2022/09/28 12:48:34;;;;;;;;;;;;;;;;;;;;;
2022/09/28 12:55:05;;;;;;;;;;;;;;;;;;;;;
2022/09/28 12:57:53;;;;;;;1.83;1.30;;;;;;;;;;4277848;33;20427;-84
2022/09/28 13:00:35;;;;;;;5.15;1.48;;;;;;;;;;4288647;33;20471;-83
2022/09/28 13:03:20;;;;;;;5.47;1.70;;;;;;;;;;4349242;33;20032;-84
2022/09/28 13:06:12;;;;;;;2.72;1.40;;;;;;;;;;4357594;32;20019;-82
2022/09/28 13:11:48;;;;;;;9.32;2.65;;;;;;;;;;4345041;33;20092;-83
2022/09/28 13:33:16;;;;;;;20.35;3.45;;;;;;;;;;4270177;33;20046;-84
2022/09/28 13:39:31;;;;;;;;;;;;;;;;;;;;;
2022/09/28 13:48:36;;;;;;;;;;;;;;;;;;;;;
2022/09/28 14:01:12;;;;;;;;;;;;;;;;;;;;;
2022/09/28 14:03:58;;;;;;;10.25;5.05;;;;;;;;;;4260043;33;20034;-82
2022/09/28 14:06:53;;;;;;;14.15;5.47;;;;;;;;;;4270143;33;20076;-82
2022/09/28 14:15:55;;;;;;;;;;;;;;;;;;;;;
2022/09/28 14:25:19;;;;;;;5.25;2.85;;;;;;;;;;4270485;33;20021;-81
2022/09/28 14:28:06;;;;;;;6.72;2.17;;;;;;;;;;4271019;33;20078;-82
2022/09/28 14:30:54;;;;;;;5.00;1.90;;;;;;;;;;4270514;33;20037;-82
2022/09/28 14:33:22;;;;;;;1.90;1.40;;;;;;;;;;4270419;33;20044;-82
2022/09/28 14:41:45;;;;;;;4.82;2.12;;;;;;;;;;4357366;33;20112;-82
2022/09/28 14:44:17;;;;;;;3.70;1.83;;;;;;;;;;4360144;33;20016;-83
2022/09/28 14:50:54;;;;;;;3.15;1.58;;;;;;;;;;4313518;33;20114;-82
2022/09/28 14:54:21;;;;;;;4.50;1.75;;;;;;;;;;4284551;33;20037;-82
2022/09/28 14:56:44;;;;;;;2.17;1.50;;;;;;;;;;4293857;33;20056;-83
2022/09/28 14:59:36;;;;;;;7.07;1.90;;;;;;;;;;4299552;33;20176;-81
2022/09/28 15:02:12;;;;;;;1.92;1.35;;;;;;;;;;4309372;33;20043;-83
2022/09/28 15:05:21;;;;;;;4.97;1.33;;;;;;;;;;4328113;33;20044;-84
2022/09/28 15:11:11;;;;;;;3.62;1.20;;;;;;;;;;4269778;33;20056;-84
2022/09/28 15:13:44;;;;;;;3.45;1.42;;;;;;;;;;4339884;33;20031;-84
2022/09/28 15:16:19;;;;;;;5.53;1.40;;;;;;;;;;4345945;33;20011;-84
2022/09/28 15:22:59;;;;;;;3.00;1.70;;;;;;;;;;4312983;33;20019;-84
2022/09/28 15:28:42;;;;;;;1.85;1.20;;;;;;;;;;4344338;33;20059;-84
2022/09/28 15:34:51;;;;;;;3.45;1.95;;;;;;;;;;4313368;33;20040;-84
2022/09/28 15:37:32;;;;;;;4.03;1.50;;;;;;;;;;4343185;33;20050;-85
2022/09/28 15:39:59;;;;;;;6.62;2.47;;;;;;;;;;4358073;32;20598;-84
2022/09/28 15:45:36;;;;;;;4.45;1.73;;;;;;;;;;4338227;32;20049;-84
2022/09/28 15:48:23;;;;;;;3.42;1.52;;;;;;;;;;4362529;32;20141;-84
2022/09/28 15:50:51;;;;;;;;;;;;;;;;;;4360954;33;20023;-83
2022/09/28 15:53:17;;;;;;;3.58;1.80;;;;;;;;;;4361041;33;19930;-83
2022/09/28 15:55:53;;;;;;;4.47;2.03;;;;;;;;;;4360908;32;20027;-83
2022/09/28 15:58:31;;;;;;;5.37;2.12;;;;;;;;;;4362266;33;20004;-83
2022/09/28 16:01:34;;;;;;;4.30;1.95;;;;;;;;;;4371975;32;20049;-82
2022/09/28 16:04:00;;;;;;;2.08;1.50;;;;;;;;;;4333008;32;20081;-82
2022/09/28 16:06:28;;;;;;;;;;;;;;;;;;4363434;32;20043;-82
2022/09/28 16:08:58;;;;;;;5.07;2.45;;;;;;;;;;4376589;32;19956;-82
2022/09/28 16:11:30;;;;;;;2.90;1.80;;;;;;;;;;4376882;32;20057;-82
2022/09/28 16:14:00;;;;;;;3.62;1.95;;;;;;;;;;4377566;32;20049;-81
2022/09/28 16:16:34;;;;;;;3.97;2.03;;;;;;;;;;4376728;32;20451;-81
2022/09/28 16:19:02;;;;;;;5.07;2.20;;;;;;;;;;4377208;32;20019;-81
2022/09/28 16:21:27;;;;;;;6.30;2.28;;;;;;;;;;4376648;32;20157;-81
2022/09/28 16:23:54;;;;;;;;;;;;;;;;;;4363184;32;20027;-81
2022/09/28 16:26:48;;;;;;;4.18;1.62;;;;;;;;;;4376592;32;19992;-80
2022/09/28 16:30:14;;;;;;;4.85;2.78;;;;;;;;;;4374697;32;20065;-80
2022/09/28 16:32:41;;;;;;;4.90;2.00;;;;;;;;;;4364945;32;20338;-80
2022/09/28 16:35:57;;;;;;;7.50;1.77;;;;;;;;;;4368447;32;20043;-79
2022/09/28 16:38:48;;;;;;;3.05;1.50;;;;;;;;;;4341901;32;20064;-80
2022/09/28 16:41:30;;;;;;;4.10;1.70;;;;;;;;;;4364039;32;20046;-80
2022/09/28 16:44:22;;;;;;;5.35;2.47;;;;;;;;;;4345622;33;20035;-79
2022/09/28 16:46:52;;;;;;;10.80;2.92;;;;;;;;;;4361344;32;20015;-79
2022/09/28 16:49:18;;;;;;;5.28;2.20;;;;;;;;;;4361489;33;20526;-78
2022/09/28 16:51:45;;;;;;;;;;;;;;;;;;4361783;32;20066;-78
2022/09/28 16:56:59;;;;;;;3.42;1.70;;;;;;;;;;4361362;32;20093;-78
2022/09/28 16:59:32;;;;;;;;;;;;;;;;;;4361358;32;20055;-77
2022/09/28 17:02:12;;;;;;;3.03;1.77;;;;;;;;;;4361046;33;20363;-77
2022/09/28 17:04:43;;;;;;;2.85;1.98;;;;;;;;;;4361186;32;20059;-77
2022/09/28 17:07:13;;;;;;;6.95;2.42;;;;;;;;;;4347709;33;20465;-78
2022/09/28 17:09:41;;;;;;;5.20;2.65;;;;;;;;;;4361070;32;20054;-78
2022/09/28 17:12:18;;;;;;;3.85;2.47;;;;;;;;;;4360964;32;20450;-78
2022/09/28 17:14:44;;;;;;;5.05;2.20;;;;;;;;;;4361006;32;20031;-78
2022/09/28 17:17:15;;;;;;;9.73;2.60;;;;;;;;;;4360785;33;20039;-77
2022/09/28 17:19:43;;;;;;;7.97;3.22;;;;;;;;;;4361200;32;20035;-77
2022/09/28 17:22:09;;;;;;;7.95;3.75;;;;;;;;;;4360847;32;20039;-77
2022/09/28 17:24:37;;;;;;;;;;;;;;;;;;4361238;32;20346;-77
2022/09/28 17:27:04;;;;;;;6.75;3.42;;;;;;;;;;4360642;33;20326;-77
2022/09/28 17:29:40;;;;;;;6.45;3.83;;;;;;;;;;4360620;32;20041;-77
2022/09/28 17:35:22;;;;;;;9.82;6.18;;;;;;;;;;4333911;33;20043;-77
2022/09/28 17:38:22;;;;;;;12.60;7.43;;;;;;;;;;4358617;33;20105;-77
2022/09/28 17:41:11;;;;;;;13.07;7.87;;;;;;;;;;4347383;33;20102;-77
2022/09/28 17:43:37;;;;;;;11.00;8.55;;;;;;;;;;4345265;33;20023;-78
2022/09/28 17:46:02;;;;;;;;;;;;;;;;;;4347343;33;20405;-77
2022/09/28 17:48:32;;;;;;;12.23;8.60;;;;;;;;;;4346884;33;20415;-77
2022/09/28 17:51:03;;;;;;;12.37;7.72;;;;;;;;;;4331528;33;20530;-78
2022/09/28 17:53:28;;;;;;;9.43;5.53;;;;;;;;;;4345611;33;20063;-77
2022/09/28 17:55:56;;;;;;;;;;;;;;;;;;4360277;32;20446;-78
2022/09/28 17:58:21;;;;;;;6.37;4.50;;;;;;;;;;4360185;32;19976;-78
2022/09/28 18:00:49;;;;;;;7.65;4.68;;;;;;;;;;4360629;32;20334;-77
2022/09/28 18:03:21;;;;;;;5.97;4.65;;;;;;;;;;4360259;32;20027;-78
2022/09/28 18:05:48;;;;;;;8.80;5.00;;;;;;;;;;4360130;32;20135;-78
2022/09/28 18:08:36;;;;;;;8.90;6.37;;;;;;;;;;4360984;32;20445;-78
2022/09/28 18:14:08;;;;;;;9.73;7.20;;;;;;;;;;4351675;33;20109;-78
2022/09/28 18:16:34;;;;;;;11.27;7.12;;;;;;;;;;4360197;32;20019;-77
2022/09/28 18:18:59;;;;;;;;;;;;;;;;;;4360067;32;20138;-78
2022/09/28 18:21:25;;;;;;;15.48;8.10;;;;;;;;;;4359933;32;19943;-77
2022/09/28 18:23:50;;;;;;;;;;;;;;;;;;4360049;32;20031;-77
2022/09/28 18:26:21;;;;;;;14.70;8.38;;;;;;;;;;4359767;32;19954;-78
2022/09/28 18:28:46;;;;;;;14.85;8.30;;;;;;;;;;4359540;33;20430;-77
2022/09/28 18:31:14;;;;;;;;;;;;;;;;;;4346490;33;20023;-77
2022/09/28 18:33:40;;;;;;;16.92;12.57;;;;;;;;;;4359495;33;19938;-77
2022/09/28 18:36:05;;;;;;;;;;;;;;;;;;4360103;32;20023;-77
2022/09/28 18:38:30;;;;;;;24.52;18.90;;;;;;;;;;4345944;33;19946;-78
2022/09/28 18:40:55;;;;;;;;;;;;;;;;;;4359884;32;20048;-77
2022/09/28 18:43:21;;;;;;;21.30;15.55;;;;;;;;;;4359429;32;19939;-77
2022/09/28 18:45:46;;;;;;;20.08;17.00;;;;;;;;;;4359274;33;20047;-78
2022/09/28 18:48:12;;;;;;;;;;;;;;;;;;4359897;32;20069;-78
2022/09/28 18:50:37;;;;;;;23.52;14.48;;;;;;;;;;4359598;32;19989;-79
2022/09/28 18:53:11;;;;;;;;;;;;;;;;;;4346077;33;20098;-79
2022/09/28 18:55:41;;;;;;;19.95;12.95;;;;;;;;;;4353608;32;20261;-78
2022/09/28 18:58:07;;;;;;;18.27;12.10;;;;;;;;;;4358739;33;20081;-78
2022/09/28 19:00:33;;;;;;;19.00;11.93;;;;;;;;;;4358077;33;20125;-77
2022/09/28 19:03:01;;;;;;;;;;;;;;;;;;4342389;32;20086;-79
2022/09/28 19:05:27;;;;;;;12.75;10.43;;;;;;;;;;4343426;33;19954;-79
2022/09/28 19:07:53;;;;;;;12.35;8.93;;;;;;;;;;4356489;32;20409;-78
2022/09/28 19:10:28;;;;;;;13.57;10.48;;;;;;;;;;4359070;32;20026;-78
2022/09/28 19:12:56;;;;;;;11.93;9.02;;;;;;;;;;4349603;33;20054;-78
2022/09/28 19:15:22;;;;;;;12.60;9.45;;;;;;;;;;4361879;32;20027;-77
2022/09/28 19:17:47;;;;;;;;;;;;;;;;;;4362372;32;20121;-78
2022/09/28 19:20:15;;;;;;;17.62;11.05;;;;;;;;;;4349146;33;19977;-77
2022/09/28 19:22:40;;;;;;;15.38;10.10;;;;;;;;;;4362219;32;20127;-78
2022/09/28 19:25:06;;;;;;;;;;;;;;;;;;4362855;32;20062;-78
2022/09/28 19:27:31;;;;;;;15.75;10.00;;;;;;;;;;4361694;32;19953;-77
2022/09/28 19:29:57;;;;;;;13.68;10.07;;;;;;;;;;4362071;32;20027;-78
2022/09/28 19:32:22;;;;;;;;;;;;;;;;;;4348063;33;20077;-76
2022/09/28 19:34:47;;;;;;;14.07;9.40;;;;;;;;;;4361462;32;19982;-77
2022/09/28 19:37:12;;;;;;;;;;;;;;;;;;4362044;32;20067;-76
2022/09/28 19:39:41;;;;;;;15.45;11.18;;;;;;;;;;4360247;32;19970;-76
2022/09/28 19:42:35;;;;;;;12.52;10.88;;;;;;;;;;4361306;32;20027;-77
2022/09/28 19:45:01;;;;;;;14.87;9.75;;;;;;;;;;4347546;33;20061;-77
2022/09/28 19:47:26;;;;;;;;;;;;;;;;;;4361865;32;20027;-77
2022/09/28 19:49:51;;;;;;;12.35;10.02;;;;;;;;;;4361808;32;19954;-76
2022/09/28 19:52:16;;;;;;;;;;;;;;;;;;4361426;32;20030;-76
2022/09/28 19:54:43;;;;;;;13.15;8.65;;;;;;;;;;4361938;32;19953;-77
2022/09/28 19:57:09;;;;;;;11.18;8.73;;;;;;;;;;4359770;33;20062;-76
2022/09/28 19:59:35;;;;;;;;;;;;;;;;;;4361628;32;20027;-77
2022/09/28 20:02:00;;;;;;;10.13;7.90;;;;;;;;;;4361513;32;19997;-78
2022/09/28 20:04:26;;;;;;;7.68;6.18;;;;;;;;;;4361942;32;20031;-78
2022/09/28 20:06:51;;;;;;;;;;;;;;;;;;4362299;32;20043;-77
2022/09/28 20:09:16;;;;;;;6.93;6.18;;;;;;;;;;4362063;32;20234;-78
2022/09/28 20:11:44;;;;;;;;;;;;;;;;;;4343458;33;20035;-78
2022/09/28 20:14:14;;;;;;;8.95;6.60;;;;;;;;;;4346937;33;19943;-77
2022/09/28 20:16:53;;;;;;;6.82;6.12;;;;;;;;;;4358358;32;20041;-78
2022/09/28 20:19:20;;;;;;;10.30;5.80;;;;;;;;;;4361478;32;20101;-77
2022/09/28 20:21:47;;;;;;;7.80;5.20;;;;;;;;;;4347624;33;20058;-78
2022/09/28 20:24:12;;;;;;;15.07;4.78;;;;;;;;;;4347588;33;20043;-77
2022/09/28 20:26:38;;;;;;;;;;;;;;;;;;4361434;32;20117;-78
2022/09/28 20:29:04;;;;;;;6.05;5.00;;;;;;;;;;4361181;32;20015;-77
2022/09/28 20:31:29;;;;;;;10.70;5.10;;;;;;;;;;4360945;33;20087;-78
2022/09/28 20:33:55;;;;;;;;;;;;;;;;;;4361160;33;20057;-77
2022/09/28 20:36:22;;;;;;;6.00;4.40;;;;;;;;;;4360944;32;19973;-78
2022/09/28 20:38:48;;;;;;;6.30;4.20;;;;;;;;;;4360867;32;20339;-77
2022/09/28 20:41:14;;;;;;;7.80;4.43;;;;;;;;;;4358368;32;20067;-78
2022/09/28 20:43:39;;;;;;;;;;;;;;;;;;4345272;33;20370;-76
2022/09/28 20:46:05;;;;;;;6.50;3.83;;;;;;;;;;4347550;33;20289;-75
2022/09/28 20:48:31;;;;;;;5.75;4.07;;;;;;;;;;4362125;32;20138;-75
2022/09/28 20:50:56;;;;;;;;;;;;;;;;;;4348126;33;20078;-76
2022/09/28 20:53:22;;;;;;;6.18;3.28;;;;;;;;;;4362504;32;19973;-76
2022/09/28 20:55:55;;;;;;;6.15;3.40;;;;;;;;;;4360086;32;20181;-75
2022/09/28 20:58:20;;;;;;;7.28;3.80;;;;;;;;;;4350388;33;20071;-74
2022/09/28 21:00:46;;;;;;;;;;;;;;;;;;4339997;33;20098;-75
2022/09/28 21:03:14;;;;;;;5.72;3.17;;;;;;;;;;4346907;33;19955;-74
2022/09/28 21:05:39;;;;;;;5.93;3.85;;;;;;;;;;4354380;33;20023;-74
2022/09/28 21:08:05;;;;;;;;;;;;;;;;;;4361891;33;20451;-74
2022/09/28 21:10:30;;;;;;;5.80;3.50;;;;;;;;;;4347971;33;20284;-74
2022/09/28 21:12:56;;;;;;;9.05;4.95;;;;;;;;;;4361186;32;20468;-74
2022/09/28 21:15:21;;;;;;;;;;;;;;;;;;4361436;32;20035;-74
2022/09/28 21:17:46;;;;;;;5.70;3.85;;;;;;;;;;4361604;32;19946;-75
2022/09/28 21:20:11;;;;;;;;;;;;;;;;;;4361831;32;20414;-74
2022/09/28 21:22:37;;;;;;;11.00;4.18;;;;;;;;;;4347829;33;19942;-75
2022/09/28 21:25:02;;;;;;;;;;;;;;;;;;4361176;32;20437;-74
2022/09/28 21:27:27;;;;;;;7.22;4.30;;;;;;;;;;4360747;32;20582;-74
2022/09/28 21:29:53;;;;;;;8.55;5.18;;;;;;;;;;4362174;32;20093;-74
2022/09/28 21:32:18;;;;;;;;;;;;;;;;;;4361063;32;20027;-74
2022/09/28 21:34:43;;;;;;;7.60;5.10;;;;;;;;;;4359285;32;19960;-74
2022/09/28 21:37:08;;;;;;;;;;;;;;;;;;4360397;32;20027;-75
2022/09/28 21:39:34;;;;;;;9.02;5.15;;;;;;;;;;4358356;32;19990;-74
2022/09/28 21:42:02;;;;;;;10.88;5.65;;;;;;;;;;4360530;32;20031;-74
2022/09/28 21:48:18;;;;;;;7.68;5.87;;;;;;;;;;4298801;33;20084;-75
2022/09/28 21:51:05;;;;;;;10.05;6.15;;;;;;;;;;4299596;33;20048;-75
2022/09/28 21:53:32;;;;;;;10.48;7.28;;;;;;;;;;4350478;33;20110;-74
2022/09/28 21:55:58;;;;;;;8.70;7.65;;;;;;;;;;4360678;32;20023;-75
2022/09/28 21:58:25;;;;;;;12.05;6.90;;;;;;;;;;4345553;33;20078;-75
2022/09/28 22:01:18;;;;;;;8.15;6.82;;;;;;;;;;4347411;33;20143;-75
2022/09/28 22:03:47;;;;;;;7.97;6.32;;;;;;;;;;4360954;32;20435;-75
2022/09/28 22:06:14;;;;;;;14.50;7.47;;;;;;;;;;4360214;32;20031;-75
2022/09/28 22:08:39;;;;;;;10.68;8.18;;;;;;;;;;4360362;32;20144;-74
2022/09/28 22:11:04;;;;;;;;;;;;;;;;;;4361188;32;20402;-75
2022/09/28 22:13:32;;;;;;;7.95;7.15;;;;;;;;;;4360766;32;19946;-73
2022/09/28 22:15:57;;;;;;;9.48;8.30;;;;;;;;;;4360754;32;20058;-74
2022/09/28 22:18:22;;;;;;;;;;;;;;;;;;4360666;32;20035;-74
2022/09/28 22:20:48;;;;;;;10.55;9.20;;;;;;;;;;4360737;32;20390;-74
2022/09/28 22:23:13;;;;;;;;;;;;;;;;;;4358829;32;20039;-74
2022/09/28 22:25:38;;;;;;;11.90;9.27;;;;;;;;;;4360282;32;19951;-74
2022/09/28 22:28:03;;;;;;;;;;;;;;;;;;4360556;32;20030;-74
2022/09/28 22:30:29;;;;;;;12.07;8.65;;;;;;;;;;4360530;33;20353;-74
2022/09/28 22:32:54;;;;;;;;;;;;;;;;;;4360919;32;20141;-74
2022/09/28 22:35:19;;;;;;;12.32;8.85;;;;;;;;;;4346478;33;19949;-74
2022/09/28 22:37:44;;;;;;;;;;;;;;;;;;4360265;32;20031;-74
2022/09/28 22:40:11;;;;;;;9.95;8.50;;;;;;;;;;4360148;32;19965;-74
2022/09/28 22:42:37;;;;;;;12.85;8.93;;;;;;;;;;4359856;33;20077;-74
2022/09/28 22:45:02;;;;;;;;;;;;;;;;;;4359842;32;20047;-74
2022/09/28 22:47:30;;;;;;;13.93;9.43;;;;;;;;;;4359733;32;20015;-74
2022/09/28 22:49:56;;;;;;;15.10;10.52;;;;;;;;;;4359991;32;20027;-75
2022/09/28 22:52:21;;;;;;;;;;;;;;;;;;4360645;32;20019;-74
2022/09/28 22:54:49;;;;;;;10.38;8.57;;;;;;;;;;4360196;32;19946;-74
2022/09/28 22:57:15;;;;;;;15.25;10.52;;;;;;;;;;4360337;32;20023;-74
2022/09/28 22:59:40;;;;;;;;;;;;;;;;;;4360389;33;20027;-74
2022/09/28 23:02:05;;;;;;;13.57;8.93;;;;;;;;;;4360113;33;19955;-74
2022/09/28 23:04:31;;;;;;;;;;;;;;;;;;4360194;33;20027;-74
2022/09/28 23:06:56;;;;;;;12.85;10.20;;;;;;;;;;4359796;33;19981;-74
2022/09/28 23:09:24;;;;;;;;;;;;;;;;;;4360322;33;20044;-74
2022/09/28 23:11:49;;;;;;;;;;;;;;;;;;4360234;33;19961;-75
2022/09/28 23:14:14;;;;;;;14.32;10.82;;;;;;;;;;4359470;33;19982;-74
2022/09/28 23:16:40;;;;;;;15.05;10.95;;;;;;;;;;4359731;33;20054;-74
2022/09/28 23:19:05;;;;;;;17.20;11.77;;;;;;;;;;4359565;33;20023;-74
2022/09/28 23:21:30;;;;;;;20.42;11.12;;;;;;;;;;4359574;33;20093;-75
2022/09/28 23:23:56;;;;;;;;;;;;;;;;;;4360033;33;20077;-74
2022/09/28 23:26:22;;;;;;;18.25;12.35;;;;;;;;;;4360153;33;19934;-74
2022/09/28 23:28:51;;;;;;;17.92;11.25;;;;;;;;;;4359739;33;20085;-74
2022/09/28 23:31:20;;;;;;;18.83;12.35;;;;;;;;;;4359941;33;20394;-74
2022/09/28 23:33:46;;;;;;;22.40;12.13;;;;;;;;;;4345870;33;20027;-74
2022/09/28 23:36:11;;;;;;;;;;;;;;;;;;4360418;33;20027;-74
2022/09/28 23:38:39;;;;;;;16.73;11.43;;;;;;;;;;4359469;33;19981;-74
2022/09/28 23:41:05;;;;;;;16.12;13.62;;;;;;;;;;4345954;33;20186;-74
2022/09/28 23:43:30;;;;;;;;;;;;;;;;;;4359575;33;20053;-74
2022/09/28 23:45:55;;;;;;;19.58;14.18;;;;;;;;;;4359352;33;19939;-74
2022/09/28 23:48:21;;;;;;;;;;;;;;;;;;4359755;33;20023;-74
2022/09/28 23:50:46;;;;;;;20.10;13.68;;;;;;;;;;4359496;33;19938;-74
2022/09/28 23:53:13;;;;;;;18.98;14.93;;;;;;;;;;4336739;33;20054;-74
2022/09/28 23:55:38;;;;;;;20.00;15.27;;;;;;;;;;4359510;33;20043;-74